Time;durP1;ratioP1;P1;durP2;ratioP2;P2;SDS_P1;SDS_P2;PMS_P1;PMS_P2;Temp;Humidity;BMP_temperature;BMP_pressure;BME280_temperature;BME280_humidity;BME280_pressure;Samples;Min_cycle;Max_cycle;Signal;HPM_P1;HPM_P2
2021/01/04 00:01:27;;;;;;;11.07;4.15;;;1.70;99.90;;;;;;4917772;29;20036;-93
2021/01/04 00:04:32;;;;;;;11.43;3.55;;;1.70;99.90;;;;;;4917588;29;20088;-94
2021/01/04 00:07:24;;;;;;;14.70;3.38;;;1.70;99.90;;;;;;4903709;29;20060;-93
2021/01/04 00:10:28;;;;;;;7.10;2.95;;;1.80;99.90;;;;;;4917694;29;20064;-94
2021/01/04 00:13:08;;;;;;;8.68;3.47;;;1.80;99.90;;;;;;4917440;29;20052;-94
2021/01/04 00:15:52;;;;;;;6.55;3.45;;;1.90;99.90;;;;;;4917598;29;20054;-93
2021/01/04 00:18:37;;;;;;;16.17;4.07;;;1.90;99.90;;;;;;4917325;29;20034;-93
2021/01/04 00:21:18;;;;;;;10.30;3.45;;;1.90;99.90;;;;;;4917297;29;20064;-94
2021/01/04 00:23:58;;;;;;;6.13;2.80;;;1.90;99.90;;;;;;4917103;29;20040;-93
2021/01/04 00:26:50;;;;;;;7.82;2.63;;;1.90;99.90;;;;;;4917524;29;20479;-94
2021/01/04 00:29:19;;;;;;;10.00;3.67;;;1.90;99.90;;;;;;4912783;29;20103;-93
2021/01/04 00:31:51;;;;;;;8.98;3.70;;;1.90;99.90;;;;;;4917191;29;20027;-92
2021/01/04 00:34:25;;;;;;;7.63;3.28;;;1.90;99.90;;;;;;4917437;29;20020;-93
2021/01/04 00:37:03;;;;;;;14.82;3.45;;;1.80;99.90;;;;;;4917548;29;20084;-93
2021/01/04 00:39:44;;;;;;;14.68;3.15;;;1.80;99.90;;;;;;4916510;29;20044;-93
2021/01/04 00:42:30;;;;;;;9.75;3.30;;;1.80;99.90;;;;;;4916558;29;20037;-93
2021/01/04 00:45:04;;;;;;;8.23;3.17;;;1.70;99.90;;;;;;4916670;29;20070;-92
2021/01/04 00:48:09;;;;;;;10.88;3.38;;;1.70;99.90;;;;;;4916599;29;20036;-93
2021/01/04 00:50:44;;;;;;;10.35;4.00;;;1.70;99.90;;;;;;4916313;29;20024;-93
2021/01/04 00:53:18;;;;;;;11.55;4.18;;;1.70;99.90;;;;;;4916744;29;20036;-93
2021/01/04 00:55:50;;;;;;;10.00;3.55;;;1.70;99.90;;;;;;4917002;29;20040;-92
2021/01/04 00:58:22;;;;;;;6.32;4.18;;;1.70;99.90;;;;;;4916033;29;20028;-92
2021/01/04 01:01:01;;;;;;;10.68;4.93;;;1.70;99.90;;;;;;4916866;29;20032;-92
2021/01/04 01:04:04;;;;;;;11.63;4.80;;;1.70;99.90;;;;;;4917450;29;20069;-93
2021/01/04 01:06:57;;;;;;;13.95;5.22;;;1.70;99.90;;;;;;4917267;29;20059;-93
2021/01/04 01:09:23;;;;;;;12.07;4.22;;;1.70;99.90;;;;;;4927116;29;20037;-93
2021/01/04 01:12:03;;;;;;;7.65;3.58;;;1.60;99.90;;;;;;4931357;29;20279;-95
2021/01/04 01:14:43;;;;;;;12.25;3.60;;;1.60;99.90;;;;;;4934784;29;20068;-92
2021/01/04 01:17:55;;;;;;;9.52;4.40;;;1.60;99.90;;;;;;4939024;29;20103;-92
2021/01/04 01:20:22;;;;;;;6.57;4.22;;;1.60;99.90;;;;;;4924886;29;20032;-93
2021/01/04 01:22:48;;;;;;;9.05;4.88;;;1.60;99.90;;;;;;4920719;29;20127;-92
2021/01/04 01:25:21;;;;;;;17.67;5.32;;;1.60;99.90;;;;;;4919943;29;20056;-93
2021/01/04 01:28:28;;;;;;;9.80;4.70;;;1.60;99.90;;;;;;4931643;29;20039;-93
2021/01/04 01:31:15;;;;;;;10.77;4.40;;;1.50;99.90;;;;;;4917811;29;20048;-92
2021/01/04 01:34:05;;;;;;;7.53;4.00;;;1.50;99.90;;;;;;4917825;29;20498;-93
2021/01/04 01:36:50;;;;;;;11.98;3.53;;;1.50;99.90;;;;;;4917141;29;20134;-92
2021/01/04 01:39:46;;;;;;;12.75;3.47;;;1.50;99.90;;;;;;4917140;29;20051;-92
2021/01/04 01:42:54;;;;;;;5.47;2.83;;;1.50;99.90;;;;;;4917254;29;20393;-93
2021/01/04 01:45:27;;;;;;;12.57;3.10;;;1.50;99.90;;;;;;4917332;29;20489;-93
2021/01/04 01:48:04;;;;;;;9.68;2.63;;;1.50;99.90;;;;;;4917307;29;20025;-92
2021/01/04 01:50:33;;;;;;;6.22;2.58;;;1.50;99.90;;;;;;4917181;29;20051;-92
2021/01/04 01:53:25;;;;;;;5.32;2.53;;;1.50;99.90;;;;;;4916971;29;20569;-92
2021/01/04 01:55:50;;;;;;;8.48;2.30;;;1.50;99.90;;;;;;4916508;29;20572;-92
2021/01/04 01:58:58;;;;;;;8.15;2.60;;;1.50;99.90;;;;;;4916410;29;20063;-92
2021/01/04 02:01:26;;;;;;;6.38;2.92;;;1.60;99.90;;;;;;4919354;29;20497;-93
2021/01/04 02:04:06;;;;;;;8.05;2.80;;;1.60;99.90;;;;;;4920073;29;20116;-94
2021/01/04 02:07:08;;;;;;;9.98;2.00;;;1.60;99.90;;;;;;4919789;29;20073;-93
2021/01/04 02:09:42;;;;;;;6.55;2.70;;;1.60;99.90;;;;;;4919786;29;20036;-94
2021/01/04 02:12:09;;;;;;;10.93;2.42;;;1.70;99.90;;;;;;4919833;29;20084;-93
2021/01/04 02:14:50;;;;;;;5.93;2.30;;;1.70;99.90;;;;;;4920014;29;20028;-93
2021/01/04 02:17:46;;;;;;;11.60;2.58;;;1.70;99.90;;;;;;4919869;29;20067;-92
2021/01/04 02:20:20;;;;;;;5.65;2.55;;;1.80;99.90;;;;;;4919223;29;20037;-93
2021/01/04 02:23:19;;;;;;;5.53;2.50;;;1.80;99.90;;;;;;4919116;29;20099;-93
2021/01/04 02:25:49;;;;;;;7.82;2.92;;;1.80;99.90;;;;;;4919057;29;20119;-92
2021/01/04 02:28:22;;;;;;;8.37;2.13;;;1.80;99.90;;;;;;4919287;29;20383;-93
2021/01/04 02:30:48;;;;;;;5.13;2.65;;;1.80;99.90;;;;;;4919118;29;20138;-91
2021/01/04 02:33:15;;;;;;;4.55;2.53;;;1.80;99.90;;;;;;4918665;29;20494;-92
2021/01/04 02:35:42;;;;;;;3.67;2.13;;;1.80;99.90;;;;;;4918735;29;20096;-93
2021/01/04 02:38:08;;;;;;;12.43;3.13;;;1.80;99.90;;;;;;4918462;29;20028;-92
2021/01/04 02:40:34;;;;;;;5.07;2.50;;;1.80;99.90;;;;;;4918757;29;20122;-92
2021/01/04 02:43:00;;;;;;;7.40;3.55;;;1.80;99.90;;;;;;4918500;29;20051;-93
2021/01/04 02:45:29;;;;;;;6.22;3.00;;;1.80;99.90;;;;;;4918858;29;20497;-93
2021/01/04 02:48:25;;;;;;;15.65;4.10;;;1.80;99.90;;;;;;4918614;29;20028;-93
2021/01/04 02:51:17;;;;;;;7.65;4.32;;;1.80;99.90;;;;;;4918597;29;20541;-93
2021/01/04 02:54:20;;;;;;;6.45;3.40;;;1.80;99.90;;;;;;4918885;29;20083;-92
2021/01/04 02:57:23;;;;;;;10.52;3.97;;;1.80;99.90;;;;;;4918535;29;20135;-92
2021/01/04 02:59:56;;;;;;;13.75;4.70;;;1.80;99.90;;;;;;4918577;29;20028;-93
2021/01/04 03:02:39;;;;;;;8.93;4.50;;;1.80;99.90;;;;;;4918600;29;20087;-92
2021/01/04 03:05:09;;;;;;;7.25;4.10;;;1.80;99.90;;;;;;4919973;29;20052;-93
2021/01/04 03:07:35;;;;;;;8.35;3.92;;;1.80;99.90;;;;;;4920565;29;20485;-94
2021/01/04 03:10:37;;;;;;;12.82;4.30;;;1.80;99.90;;;;;;4921170;29;20024;-94
2021/01/04 03:13:15;;;;;;;9.73;3.92;;;1.80;99.90;;;;;;4916343;29;20123;-94
2021/01/04 03:16:12;;;;;;;9.93;3.78;;;1.80;99.90;;;;;;4920621;29;20495;-92
2021/01/04 03:18:50;;;;;;;10.55;4.22;;;1.90;99.90;;;;;;4873198;29;20036;-93
2021/01/04 03:21:16;;;;;;;7.50;4.68;;;1.80;99.90;;;;;;4920636;29;20032;-93
2021/01/04 03:23:50;;;;;;;7.47;4.68;;;1.90;99.90;;;;;;4920194;29;20122;-94
2021/01/04 03:26:38;;;;;;;13.68;4.30;;;1.90;99.90;;;;;;4920539;29;20039;-94
2021/01/04 03:29:04;;;;;;;9.38;3.85;;;1.90;99.90;;;;;;4920540;29;20031;-93
2021/01/04 03:31:29;;;;;;;10.30;3.88;;;1.80;99.90;;;;;;4920960;29;20027;-94
2021/01/04 03:33:55;;;;;;;9.07;3.97;;;1.80;99.90;;;;;;4921326;29;20035;-93
2021/01/04 03:36:21;;;;;;;13.82;4.30;;;1.80;99.90;;;;;;4920787;29;20082;-93
2021/01/04 03:38:47;;;;;;;8.43;3.90;;;1.80;99.90;;;;;;4920900;29;20039;-94
2021/01/04 03:41:13;;;;;;;8.05;2.97;;;1.80;99.90;;;;;;4920447;29;20039;-93
2021/01/04 03:43:41;;;;;;;6.63;2.70;;;1.80;99.90;;;;;;4920812;29;20028;-94
2021/01/04 03:46:07;;;;;;;8.40;2.60;;;1.80;99.90;;;;;;4920853;29;20038;-92
2021/01/04 03:48:32;;;;;;;6.13;2.10;;;1.80;99.90;;;;;;4920700;29;20122;-93
2021/01/04 03:50:58;;;;;;;8.27;2.10;;;1.80;99.90;;;;;;4920285;29;20031;-93
2021/01/04 03:53:24;;;;;;;9.80;2.25;;;1.80;99.90;;;;;;4920284;29;20028;-93
2021/01/04 03:55:50;;;;;;;5.93;2.35;;;1.80;99.90;;;;;;4920443;29;20067;-93
2021/01/04 03:58:16;;;;;;;10.52;2.72;;;1.80;99.90;;;;;;4920104;29;20038;-94
2021/01/04 04:00:42;;;;;;;9.63;2.95;;;1.80;99.90;;;;;;4920390;29;20027;-93
2021/01/04 04:03:08;;;;;;;14.10;4.13;;;1.80;99.90;;;;;;4920246;29;20028;-92
2021/01/04 04:05:34;;;;;;;9.32;4.72;;;1.70;99.90;;;;;;4920292;29;20131;-92
2021/01/04 04:08:02;;;;;;;6.47;3.35;;;1.70;99.90;;;;;;4920272;29;20460;-93
2021/01/04 04:10:27;;;;;;;12.90;5.28;;;1.70;99.90;;;;;;4920345;29;20114;-93
2021/01/04 04:12:53;;;;;;;10.18;4.57;;;1.70;99.90;;;;;;4920266;29;20114;-92
2021/01/04 04:15:20;;;;;;;8.10;4.00;;;1.70;99.90;;;;;;4919945;29;20067;-94
2021/01/04 04:17:46;;;;;;;8.93;4.05;;;1.70;99.90;;;;;;4920092;29;20027;-93
2021/01/04 04:20:16;;;;;;;13.02;4.10;;;1.70;99.90;;;;;;4919666;29;20087;-93
2021/01/04 04:22:42;;;;;;;4.82;3.28;;;1.70;99.90;;;;;;4919820;29;20066;-93
2021/01/04 04:25:09;;;;;;;6.35;3.45;;;1.70;99.90;;;;;;4920205;29;20023;-93
2021/01/04 04:27:35;;;;;;;12.05;3.22;;;1.70;99.90;;;;;;4920738;29;20028;-94
2021/01/04 04:31:10;;;;;;;;;;;;;;;;;;;;;
2021/01/04 04:33:25;;;;;;;12.25;3.58;;;1.70;99.90;;;;;;4946692;29;20036;-93
2021/01/04 04:35:52;;;;;;;9.77;3.25;;;1.70;99.90;;;;;;4933364;29;20047;-93
2021/01/04 04:38:17;;;;;;;10.70;4.00;;;1.70;99.90;;;;;;4938360;28;20058;-92
2021/01/04 04:41:29;;;;;;;11.57;3.38;;;1.70;99.90;;;;;;4942762;29;20015;-92
2021/01/04 04:44:07;;;;;;;9.43;3.83;;;1.70;99.90;;;;;;4831705;29;20049;-94
2021/01/04 04:47:09;;;;;;;8.88;3.55;;;1.70;99.90;;;;;;4843644;29;20037;-92
2021/01/04 04:49:53;;;;;;;9.60;3.50;;;1.70;99.90;;;;;;4826427;29;20102;-93
2021/01/04 04:52:40;;;;;;;10.95;3.80;;;1.70;99.90;;;;;;4825946;29;20462;-92
2021/01/04 04:55:53;;;;;;;5.15;2.88;;;1.80;99.90;;;;;;4825786;29;20413;-93
2021/01/04 04:58:19;;;;;;;12.18;3.45;;;1.80;99.90;;;;;;4789204;29;20049;-92
2021/01/04 05:00:59;;;;;;;8.93;2.83;;;1.80;99.90;;;;;;4805485;29;20105;-92
2021/01/04 05:03:36;;;;;;;13.88;3.60;;;1.80;99.90;;;;;;4804019;29;20035;-93
2021/01/04 05:06:20;;;;;;;10.57;3.83;;;1.80;99.90;;;;;;4789724;29;20053;-93
2021/01/04 05:09:01;;;;;;;9.10;3.70;;;1.80;99.90;;;;;;4789445;29;20577;-94
2021/01/04 05:11:33;;;;;;;15.13;4.07;;;1.90;99.90;;;;;;4804857;29;20031;-93
2021/01/04 05:14:04;;;;;;;12.88;3.88;;;1.90;99.90;;;;;;4804790;29;20565;-94
2021/01/04 05:16:53;;;;;;;7.78;3.40;;;1.90;99.90;;;;;;4804496;29;20103;-93
2021/01/04 05:19:51;;;;;;;9.93;3.08;;;1.90;99.90;;;;;;4790946;29;20138;-94
2021/01/04 05:22:28;;;;;;;11.15;3.78;;;1.90;99.90;;;;;;4825546;29;20404;-95
2021/01/04 05:25:15;;;;;;;8.32;4.00;;;1.90;99.90;;;;;;4837294;29;20057;-92
2021/01/04 05:27:53;;;;;;;6.78;3.47;;;1.90;99.90;;;;;;4828735;29;20548;-94
2021/01/04 05:30:49;;;;;;;9.55;4.30;;;1.90;99.90;;;;;;4840749;29;20054;-94
2021/01/04 05:33:44;;;;;;;9.30;4.88;;;1.90;99.90;;;;;;4861503;29;20036;-93
2021/01/04 05:36:35;;;;;;;5.50;4.00;;;1.90;99.90;;;;;;4885518;29;20055;-94
2021/01/04 05:39:15;;;;;;;6.78;4.05;;;1.90;99.90;;;;;;4922678;29;20082;-93
2021/01/04 05:42:02;;;;;;;7.75;4.50;;;1.90;99.90;;;;;;4922454;29;20028;-94
2021/01/04 05:45:01;;;;;;;7.00;4.28;;;1.90;99.90;;;;;;4923150;29;20130;-93
2021/01/04 08:53:30;;;;;;;9.75;1.77;;;2.40;99.90;;;;;;5150349;23;20114;-92
2021/01/04 08:56:06;;;;;;;10.85;1.85;;;2.50;99.90;;;;;;4920407;29;20043;-95
2021/01/04 08:58:38;;;;;;;8.27;1.85;;;2.40;99.90;;;;;;4936165;29;20086;-94
2021/01/04 09:01:12;;;;;;;9.88;1.60;;;2.50;99.90;;;;;;4918995;29;20055;-93
2021/01/04 09:03:39;;;;;;;4.05;1.52;;;2.50;99.90;;;;;;4875166;29;20055;-94
2021/01/04 09:06:26;;;;;;;11.52;2.83;;;2.50;99.90;;;;;;4919760;29;20670;-93
2021/01/04 09:09:18;;;;;;;8.20;2.20;;;2.70;99.90;;;;;;4913273;29;20023;-93
2021/01/04 09:12:06;;;;;;;7.53;1.58;;;2.70;99.90;;;;;;4927213;29;20483;-93
2021/01/04 09:14:50;;;;;;;8.25;1.55;;;2.80;99.90;;;;;;4876107;29;20048;-94
2021/01/04 09:17:42;;;;;;;10.00;1.58;;;2.90;99.90;;;;;;4920583;29;20119;-94
2021/01/04 09:20:43;;;;;;;6.15;1.60;;;2.90;99.90;;;;;;4920585;29;20051;-95
2021/01/04 09:23:21;;;;;;;7.53;1.40;;;2.90;99.90;;;;;;4919447;29;20023;-93
2021/01/04 09:26:00;;;;;;;9.32;1.75;;;2.80;99.90;;;;;;4919925;29;20039;-94
2021/01/04 09:28:46;;;;;;;10.30;2.03;;;3.00;99.90;;;;;;4924752;29;20481;-94
2021/01/04 09:31:15;;;;;;;6.65;1.40;;;3.00;99.90;;;;;;4911304;29;20044;-96
2021/01/04 09:33:49;;;;;;;8.15;1.60;;;3.00;99.90;;;;;;4934004;29;20063;-95
2021/01/04 09:36:17;;;;;;;7.03;1.70;;;3.10;99.90;;;;;;4925664;29;20066;-94
2021/01/04 09:38:43;;;;;;;10.27;1.83;;;3.10;99.90;;;;;;4934619;29;20034;-93
2021/01/04 09:41:29;;;;;;;6.65;1.58;;;3.20;99.90;;;;;;4919759;29;20043;-95
2021/01/04 09:44:06;;;;;;;7.57;1.65;;;3.40;99.90;;;;;;4918813;29;20051;-94
2021/01/04 09:46:49;;;;;;;13.15;1.73;;;3.40;99.90;;;;;;4920406;29;20042;-94
2021/01/04 09:49:23;;;;;;;6.93;1.75;;;3.50;99.90;;;;;;4916610;29;20115;-93
2021/01/04 09:52:20;;;;;;;10.25;2.00;;;3.40;99.90;;;;;;4904326;29;20047;-93
2021/01/04 09:54:51;;;;;;;9.55;1.77;;;3.40;99.90;;;;;;4914617;29;20048;-95
2021/01/04 09:57:22;;;;;;;11.70;2.15;;;3.30;99.90;;;;;;4905622;29;20040;-94
2021/01/04 09:59:47;;;;;;;9.10;3.00;;;3.30;99.90;;;;;;4928679;29;20020;-94
2021/01/04 10:02:22;;;;;;;5.65;1.98;;;3.20;99.90;;;;;;4914324;29;20046;-93
2021/01/04 10:04:47;;;;;;;12.25;2.28;;;3.20;99.90;;;;;;4914494;29;20702;-93
2021/01/04 10:07:22;;;;;;;8.55;1.70;;;3.20;99.90;;;;;;4916407;29;20031;-93
2021/01/04 10:09:51;;;;;;;6.47;1.60;;;3.20;99.90;;;;;;4917013;29;20024;-94
2021/01/04 10:12:20;;;;;;;9.85;1.63;;;3.20;99.90;;;;;;4916850;29;20493;-94
2021/01/04 10:14:46;;;;;;;9.30;1.75;;;3.10;99.90;;;;;;4917025;29;20032;-94
2021/01/04 10:17:12;;;;;;;12.82;2.10;;;3.10;99.90;;;;;;4910202;29;20549;-95
2021/01/04 10:19:57;;;;;;;7.55;1.80;;;3.10;99.90;;;;;;4931961;29;20067;-94
2021/01/04 10:22:31;;;;;;;8.07;1.52;;;3.20;99.90;;;;;;4908078;29;20032;-95
2021/01/04 10:25:22;;;;;;;9.40;1.40;;;3.20;99.90;;;;;;4910384;29;20032;-96
2021/01/04 10:27:55;;;;;;;17.55;2.33;;;3.30;99.90;;;;;;4915310;29;20075;-93
2021/01/04 10:30:25;;;;;;;8.32;2.00;;;3.20;99.90;;;;;;4909582;29;20043;-95
2021/01/04 10:33:01;;;;;;;10.30;2.38;;;3.20;99.90;;;;;;4918835;29;20023;-94
2021/01/04 10:35:27;;;;;;;11.18;2.20;;;3.20;99.90;;;;;;4941708;29;20044;-93
2021/01/04 10:37:54;;;;;;;8.00;2.00;;;3.10;99.90;;;;;;4929637;29;20058;-95
2021/01/04 10:40:23;;;;;;;9.45;1.90;;;3.00;99.90;;;;;;4923153;29;20028;-96
2021/01/04 10:43:00;;;;;;;12.45;3.03;;;3.00;99.90;;;;;;4918694;29;20024;-95
2021/01/04 10:45:37;;;;;;;7.88;2.13;;;3.00;99.90;;;;;;4926777;29;20023;-95
2021/01/04 10:48:22;;;;;;;8.30;2.40;;;2.90;99.90;;;;;;4931486;29;20021;-95
2021/01/04 10:50:52;;;;;;;8.52;2.15;;;2.90;99.90;;;;;;4919628;29;20039;-95
2021/01/04 10:53:34;;;;;;;12.20;2.58;;;2.90;99.90;;;;;;4914990;29;20044;-95
2021/01/04 10:56:09;;;;;;;14.68;3.45;;;2.90;99.90;;;;;;4917326;29;20031;-94
2021/01/04 10:58:54;;;;;;;10.75;2.40;;;2.90;99.90;;;;;;4920057;29;20102;-93
2021/01/04 11:01:24;;;;;;;12.48;1.88;;;2.90;99.90;;;;;;4920654;29;20099;-94
2021/01/04 11:03:59;;;;;;;9.15;2.63;;;2.90;99.90;;;;;;4917282;29;20494;-94
2021/01/04 11:06:36;;;;;;;7.38;2.38;;;2.90;99.90;;;;;;4918339;29;20478;-93
2021/01/04 11:09:32;;;;;;;10.38;2.75;;;2.90;99.90;;;;;;4919894;29;20028;-90
2021/01/04 11:12:28;;;;;;;15.95;2.85;;;2.90;99.90;;;;;;4900996;29;20032;-95
2021/01/04 11:15:00;;;;;;;10.38;2.72;;;2.90;99.90;;;;;;4903333;29;20044;-95
2021/01/04 11:17:30;;;;;;;10.73;2.78;;;2.90;99.90;;;;;;4921273;29;20126;-95
2021/01/04 11:20:11;;;;;;;15.45;2.58;;;2.90;99.90;;;;;;4923253;29;20028;-94
2021/01/04 11:22:37;;;;;;;12.25;2.78;;;2.90;99.90;;;;;;4941951;29;20405;-91
2021/01/04 11:25:04;;;;;;;8.60;2.35;;;2.90;99.90;;;;;;4921332;29;20059;-93
2021/01/04 11:27:30;;;;;;;12.88;2.70;;;2.80;99.90;;;;;;4936706;29;20023;-91
2021/01/04 11:29:56;;;;;;;13.88;2.33;;;2.80;99.90;;;;;;4944881;29;20054;-93
2021/01/04 11:32:23;;;;;;;10.20;2.60;;;2.80;99.90;;;;;;4942841;29;20024;-92
2021/01/04 11:34:55;;;;;;;15.63;2.58;;;2.80;99.90;;;;;;4928011;29;20027;-95
2021/01/04 11:37:23;;;;;;;12.70;2.25;;;2.80;99.90;;;;;;4935513;29;20050;-92
2021/01/04 11:39:50;;;;;;;25.15;2.85;;;2.90;99.90;;;;;;4929986;29;20048;-92
2021/01/04 11:42:16;;;;;;;8.90;2.22;;;2.90;99.90;;;;;;4921961;29;20032;-93
2021/01/04 11:44:41;;;;;;;23.05;7.88;;;2.90;99.90;;;;;;4923457;29;20493;-94
2021/01/04 11:47:07;;;;;;;9.02;2.28;;;3.00;99.90;;;;;;4921546;29;20032;-95
2021/01/04 11:49:36;;;;;;;13.40;2.72;;;3.00;99.90;;;;;;4920832;29;20035;-93
2021/01/04 11:52:02;;;;;;;10.32;2.20;;;3.00;99.90;;;;;;4921525;29;20136;-94
2021/01/04 11:54:28;;;;;;;8.68;2.20;;;3.10;99.90;;;;;;4921733;29;20034;-93
2021/01/04 11:56:53;;;;;;;12.27;1.70;;;3.10;99.90;;;;;;4918586;29;20044;-94
2021/01/04 11:59:19;;;;;;;7.57;1.70;;;3.20;99.90;;;;;;4921895;29;20024;-95
2021/01/04 12:01:45;;;;;;;7.50;1.98;;;3.40;99.90;;;;;;4916709;29;20020;-94
2021/01/04 12:04:11;;;;;;;14.82;1.60;;;3.50;99.90;;;;;;4924358;29;20050;-93
2021/01/04 12:06:37;;;;;;;15.23;2.33;;;3.60;99.90;;;;;;4914052;29;20371;-95
2021/01/04 12:09:07;;;;;;;10.98;2.33;;;3.70;99.90;;;;;;4923507;29;20043;-92
2021/01/04 12:11:38;;;;;;;12.60;2.85;;;3.70;99.90;;;;;;4923970;29;20039;-94
2021/01/04 12:14:05;;;;;;;8.50;1.55;;;3.70;99.90;;;;;;4920876;29;20027;-95
2021/01/04 12:16:33;;;;;;;10.05;2.05;;;3.80;99.90;;;;;;4919721;29;20036;-96
2021/01/04 12:18:59;;;;;;;12.27;2.15;;;3.80;99.90;;;;;;4920846;29;20031;-94
2021/01/04 12:21:25;;;;;;;4.45;1.63;;;3.80;99.90;;;;;;4922249;29;20031;-94
2021/01/04 12:23:54;;;;;;;12.88;1.58;;;3.80;99.90;;;;;;4911605;29;20448;-93
2021/01/04 12:26:20;;;;;;;6.78;1.20;;;3.70;99.90;;;;;;4932716;29;20031;-93
2021/01/04 12:28:46;;;;;;;10.32;2.03;;;3.70;99.90;;;;;;4920456;29;20031;-94
2021/01/04 12:31:16;;;;;;;10.13;1.65;;;3.70;99.90;;;;;;4919785;29;20393;-95
2021/01/04 12:33:43;;;;;;;10.65;1.60;;;3.60;99.90;;;;;;4917390;29;20036;-93
2021/01/04 12:36:26;;;;;;;12.10;1.80;;;3.60;99.90;;;;;;4901591;29;20550;-94
2021/01/04 12:38:52;;;;;;;14.85;2.30;;;3.50;99.90;;;;;;4902411;29;20039;-95
2021/01/04 12:41:18;;;;;;;14.82;1.77;;;3.50;99.90;;;;;;4902179;29;20024;-94
2021/01/04 12:43:45;;;;;;;7.75;1.77;;;3.50;99.90;;;;;;4902083;29;20032;-92
2021/01/04 12:46:12;;;;;;;11.43;1.77;;;3.50;99.90;;;;;;4901367;29;20038;-95
2021/01/04 12:48:39;;;;;;;7.70;1.60;;;3.50;99.90;;;;;;4902654;29;20391;-93
2021/01/04 12:51:14;;;;;;;7.00;1.40;;;3.50;99.90;;;;;;4902853;29;20024;-95
2021/01/04 12:53:40;;;;;;;5.55;1.67;;;3.50;99.90;;;;;;4902381;29;20130;-95
2021/01/04 12:56:07;;;;;;;11.32;1.80;;;3.50;99.90;;;;;;4905948;29;20075;-94
2021/01/04 12:58:33;;;;;;;9.38;1.48;;;3.50;99.90;;;;;;4901931;29;20024;-94
2021/01/04 13:00:59;;;;;;;10.27;1.83;;;3.50;99.90;;;;;;4901299;29;20036;-94
2021/01/04 13:03:25;;;;;;;7.82;1.35;;;3.60;99.90;;;;;;4901955;29;20027;-95
2021/01/04 13:05:51;;;;;;;11.52;1.85;;;3.60;99.90;;;;;;4903112;29;20546;-95
2021/01/04 13:08:17;;;;;;;6.50;1.80;;;3.60;99.90;;;;;;4909384;29;20036;-93
2021/01/04 13:10:43;;;;;;;7.95;1.60;;;3.60;99.90;;;;;;4906664;29;20024;-95
2021/01/04 13:13:09;;;;;;;8.60;2.00;;;3.60;99.90;;;;;;4904058;29;20032;-95
2021/01/04 13:15:35;;;;;;;11.23;1.88;;;3.60;99.90;;;;;;4901096;29;20036;-95
2021/01/04 13:18:00;;;;;;;15.00;1.77;;;3.60;99.90;;;;;;4901198;29;20028;-94
2021/01/04 13:20:26;;;;;;;8.45;1.75;;;3.60;99.90;;;;;;4901414;29;20035;-95
2021/01/04 13:22:51;;;;;;;11.32;1.40;;;3.60;99.90;;;;;;4902068;29;20483;-93
2021/01/04 13:25:17;;;;;;;9.07;1.30;;;3.60;99.90;;;;;;4901880;29;20112;-95
2021/01/04 13:27:43;;;;;;;8.55;1.35;;;3.80;99.90;;;;;;4901104;29;20044;-95
2021/01/04 13:30:09;;;;;;;11.38;1.55;;;4.10;99.90;;;;;;4905251;29;20032;-94
2021/01/04 13:32:35;;;;;;;6.93;1.85;;;4.20;99.90;;;;;;4900740;29;20501;-94
2021/01/04 13:35:00;;;;;;;12.48;1.88;;;4.40;99.90;;;;;;4901017;29;20036;-95
2021/01/04 13:37:26;;;;;;;4.68;1.55;;;4.80;99.90;;;;;;4864146;29;20123;-94
2021/01/04 13:39:52;;;;;;;17.20;3.55;;;5.10;99.90;;;;;;4905252;29;20024;-95
2021/01/04 13:42:18;;;;;;;5.07;1.30;;;5.40;99.90;;;;;;4913253;29;20029;-92
2021/01/04 13:44:44;;;;;;;11.93;2.25;;;5.60;99.90;;;;;;4934815;29;20031;-94
2021/01/04 13:47:14;;;;;;;8.65;2.55;;;5.50;99.90;;;;;;4918189;29;20031;-92
2021/01/04 13:49:45;;;;;;;10.03;1.10;;;5.30;99.90;;;;;;4897134;29;20024;-93
2021/01/04 13:52:11;;;;;;;6.68;1.40;;;5.10;99.90;;;;;;4916039;29;20154;-94
2021/01/04 13:54:37;;;;;;;11.88;1.65;;;4.90;99.90;;;;;;4934322;29;20120;-95
2021/01/04 13:57:03;;;;;;;12.38;1.73;;;4.80;99.90;;;;;;4920287;29;20044;-94
2021/01/04 13:59:29;;;;;;;11.23;1.42;;;4.70;99.90;;;;;;4922488;29;20021;-93
2021/01/04 14:02:04;;;;;;;11.52;3.95;;;4.50;99.90;;;;;;4919387;29;20035;-93
2021/01/04 14:04:30;;;;;;;11.02;1.67;;;4.40;99.90;;;;;;4924879;29;20027;-93
2021/01/04 14:06:57;;;;;;;10.10;1.63;;;4.40;99.90;;;;;;4942347;29;20020;-94
2021/01/04 14:09:23;;;;;;;13.90;2.50;;;4.30;99.90;;;;;;4918348;29;20060;-93
2021/01/04 14:11:53;;;;;;;16.95;1.95;;;4.20;99.90;;;;;;4920845;29;20480;-94
2021/01/04 14:14:22;;;;;;;13.45;2.03;;;4.20;99.90;;;;;;4921465;29;20039;-93
2021/01/04 14:16:48;;;;;;;7.45;2.00;;;4.10;99.90;;;;;;4921104;29;20068;-92
2021/01/04 14:19:15;;;;;;;9.00;1.60;;;4.00;99.90;;;;;;4920666;29;20024;-93
2021/01/04 14:21:51;;;;;;;8.82;1.80;;;4.10;99.90;;;;;;4927461;29;20083;-94
2021/01/04 14:24:18;;;;;;;11.50;2.47;;;4.00;99.90;;;;;;4942203;29;20501;-93
2021/01/04 14:26:43;;;;;;;9.43;2.05;;;4.00;99.90;;;;;;4904767;29;20027;-93
2021/01/04 14:29:11;;;;;;;7.88;1.60;;;4.00;99.90;;;;;;4937975;29;20031;-94
2021/01/04 14:31:43;;;;;;;9.52;1.80;;;3.90;99.90;;;;;;4919386;29;20501;-94
2021/01/04 14:34:10;;;;;;;8.77;2.10;;;3.90;99.90;;;;;;4917025;29;20031;-94
2021/01/04 14:36:37;;;;;;;6.80;2.33;;;3.80;99.90;;;;;;4932081;29;20042;-93
2021/01/04 14:39:05;;;;;;;8.32;2.20;;;3.80;99.90;;;;;;4921742;29;20019;-94
2021/01/04 14:41:31;;;;;;;7.55;2.00;;;3.70;99.90;;;;;;4914961;29;20032;-94
2021/01/04 14:43:57;;;;;;;8.70;1.95;;;3.70;99.90;;;;;;4910546;29;20012;-94
2021/01/04 14:46:25;;;;;;;8.75;1.85;;;3.60;99.90;;;;;;4912927;29;20116;-94
2021/01/04 14:48:51;;;;;;;12.00;2.53;;;3.60;99.90;;;;;;4911046;29;20031;-95
2021/01/04 14:51:17;;;;;;;9.38;2.30;;;3.60;99.90;;;;;;4906239;29;20027;-93
2021/01/04 14:53:45;;;;;;;9.65;2.20;;;3.50;99.90;;;;;;4920990;29;20051;-94
2021/01/04 14:56:11;;;;;;;9.45;3.08;;;3.50;99.90;;;;;;4910265;29;20032;-94
2021/01/04 14:58:38;;;;;;;9.63;2.65;;;3.50;99.90;;;;;;4929000;29;20071;-94
2021/01/04 15:01:06;;;;;;;15.73;2.63;;;3.50;99.90;;;;;;4934383;29;20112;-95
2021/01/04 15:03:32;;;;;;;10.95;2.90;;;3.50;99.90;;;;;;4927885;29;20055;-93
2021/01/04 15:05:57;;;;;;;9.45;2.90;;;3.50;99.90;;;;;;4932391;29;20019;-95
2021/01/04 15:08:49;;;;;;;14.80;2.83;;;3.50;99.90;;;;;;4919360;29;20068;-94
2021/01/04 15:11:16;;;;;;;13.98;2.95;;;3.50;99.90;;;;;;4912498;29;20126;-95
2021/01/04 15:13:43;;;;;;;10.82;2.70;;;3.40;99.90;;;;;;4919316;29;20051;-93
2021/01/04 15:16:08;;;;;;;11.30;3.00;;;3.50;99.90;;;;;;4907154;29;21232;-94
2021/01/04 15:18:34;;;;;;;7.97;2.97;;;3.40;99.90;;;;;;4921818;29;20035;-95
2021/01/04 15:21:00;;;;;;;10.55;2.35;;;3.40;99.90;;;;;;4923996;29;20028;-95
2021/01/04 15:23:28;;;;;;;9.13;2.25;;;3.40;99.90;;;;;;4909100;29;20063;-94
2021/01/04 15:25:54;;;;;;;5.65;2.15;;;3.40;99.90;;;;;;4903166;29;20048;-95
2021/01/04 15:28:20;;;;;;;12.35;2.25;;;3.40;99.90;;;;;;4929863;29;20028;-94
2021/01/04 15:30:46;;;;;;;8.73;2.10;;;3.30;99.90;;;;;;4919732;29;20032;-95
2021/01/04 15:33:12;;;;;;;10.05;2.42;;;3.30;99.90;;;;;;4903823;29;20385;-93
2021/01/04 15:35:37;;;;;;;13.77;3.08;;;3.30;99.90;;;;;;4906400;29;20135;-94
2021/01/04 15:38:03;;;;;;;8.40;1.90;;;3.30;99.90;;;;;;4913428;29;20094;-95
2021/01/04 15:40:29;;;;;;;8.25;1.63;;;3.30;99.90;;;;;;4896124;29;20466;-94
2021/01/04 15:42:56;;;;;;;12.25;1.77;;;3.20;99.90;;;;;;4920617;29;20032;-94
2021/01/04 15:45:22;;;;;;;9.05;1.60;;;3.20;99.90;;;;;;4909254;29;20020;-95
2021/01/04 15:47:48;;;;;;;12.38;1.60;;;3.20;99.90;;;;;;4920415;29;20023;-94
2021/01/04 15:50:14;;;;;;;8.27;1.98;;;3.20;99.90;;;;;;4915953;29;20024;-94
2021/01/04 15:52:40;;;;;;;12.30;1.80;;;3.20;99.90;;;;;;4920531;29;20485;-94
2021/01/04 15:55:06;;;;;;;7.15;2.00;;;3.20;99.90;;;;;;4911877;29;20075;-94
2021/01/04 15:57:34;;;;;;;6.30;2.00;;;3.20;99.90;;;;;;4930642;29;20557;-92
2021/01/04 15:59:59;;;;;;;7.22;1.85;;;3.20;99.90;;;;;;4913900;29;20493;-95
2021/01/04 16:02:25;;;;;;;9.18;1.83;;;3.10;99.90;;;;;;4918270;29;20039;-95
2021/01/04 16:04:51;;;;;;;8.15;2.00;;;3.10;99.90;;;;;;4918726;29;20107;-95
2021/01/04 16:07:17;;;;;;;5.20;1.27;;;3.10;99.90;;;;;;4917897;29;20051;-91
2021/01/04 16:09:43;;;;;;;5.38;2.42;;;3.00;99.90;;;;;;4905831;29;20067;-93
2021/01/04 16:12:10;;;;;;;2.40;1.13;;;2.90;99.90;;;;;;4880290;29;20948;-94
2021/01/04 16:14:36;;;;;;;2.60;1.30;;;2.90;99.90;;;;;;4911227;29;20024;-93
2021/01/04 16:17:04;;;;;;;2.42;1.10;;;2.80;99.90;;;;;;4930778;29;20094;-94
2021/01/04 16:19:32;;;;;;;4.40;1.30;;;2.80;99.90;;;;;;4933160;29;20071;-95
2021/01/04 16:22:02;;;;;;;4.28;1.52;;;2.70;99.90;;;;;;4923246;29;20023;-94
2021/01/04 16:24:27;;;;;;;4.00;1.25;;;2.70;99.90;;;;;;4934677;29;20019;-92
2021/01/04 16:26:53;;;;;;;3.60;1.30;;;2.70;99.90;;;;;;4938854;29;20079;-92
2021/01/04 16:29:19;;;;;;;5.63;1.20;;;2.70;99.90;;;;;;4928497;29;20038;-94
2021/01/04 16:31:57;;;;;;;18.92;2.17;;;2.60;99.90;;;;;;4937848;29;20024;-94
2021/01/04 16:34:26;;;;;;;4.93;1.35;;;2.60;99.90;;;;;;4927928;29;20028;-92